Carnival Pride — H3VU — position and weather

sailwx.info

Track history (hours):
 
Tides and Currents Weather Stations Pressure Air Temp Water Temp Dewpoint Dewpoint Depression Visibility Wind Speed Wind Dir Waves Ship Positions

Carnival Pride

Operator: Carnival Cruise Lines

Last reported at 2020-Oct-01 05:18 UTC. Time now 2020-Oct-01 07:55 UTC.
Position N 18°01' W 063°03'.

Type: Ship. MMSI: 354215000.

Date/timePositionNaut miles runAvg speedWind from/ knotsBaromVisibWave heightAir tempDewpointWater temp
2020-Oct-01 05:18N 18°01' W 063°03'0 0.0
2020-Sep-30 22:30N 18°01' W 063°03'0 0.0
2020-Sep-30 21:27N 18°01' W 063°03'0 0.0
2020-Sep-30 14:51N 18°01' W 063°03'0 0.0
2020-Sep-30 12:39N 18°01' W 063°03'0 0.0
2020-Sep-30 09:54N 18°01' W 063°03'0 0.0
2020-Sep-30 06:00N 18°01' W 063°03'0 0.0
2020-Sep-30 05:27N 18°01' W 063°03'0 0.0
2020-Sep-30 05:01N 18°01' W 063°03'0 0.0
2020-Sep-30 02:51N 18°01' W 063°03'0 0.0
2020-Sep-30 02:21N 18°01' W 063°03'0 0.0
2020-Sep-29 23:25N 18°01' W 063°03'0 0.0
2020-Sep-29 17:00N 18°01' W 063°03'0 0.0
2020-Sep-29 16:00N 18°01' W 063°03'0 0.0
2020-Sep-29 14:30N 18°01' W 063°03'0 0.0
2020-Sep-29 13:48N 18°01' W 063°03'0 0.0
2020-Sep-29 12:51N 18°01' W 063°03'0 0.0
2020-Sep-29 11:09N 18°01' W 063°03'0 0.0
2020-Sep-29 06:39N 18°01' W 063°03'0 0.0
2020-Sep-29 04:57N 18°01' W 063°03'0 0.0
2020-Sep-29 04:30N 18°01' W 063°03'0 0.0
2020-Sep-29 00:21N 18°01' W 063°03'0 0.0
2020-Sep-28 21:48N 18°01' W 063°03'0 0.0
2020-Sep-28 19:51N 18°01' W 063°03'0 0.0
2020-Sep-28 19:06N 18°01' W 063°03'0 0.0
2020-Sep-28 18:24N 18°01' W 063°03'0 0.0
2020-Sep-28 17:24N 18°01' W 063°03'0 0.0
2020-Sep-28 16:00N 18°01' W 063°03'0 0.0
2020-Sep-28 14:00N 18°01' W 063°03'0 0.0
2020-Sep-28 12:00N 18°01' W 063°03'0 0.0
2020-Sep-28 11:30N 18°01' W 063°03'0 0.0
2020-Sep-28 11:00N 18°01' W 063°03'0 0.0
2020-Sep-28 10:18N 18°01' W 063°03'0 0.0
2020-Sep-28 08:09N 18°01' W 063°03'0 0.0
2020-Sep-28 07:21N 18°01' W 063°03'0 0.0
2020-Sep-28 02:57N 18°01' W 063°03'0 0.0
2020-Sep-28 01:30N 18°01' W 063°03'0 0.0
2020-Sep-28 00:57N 18°01' W 063°03'0 0.0
2020-Sep-27 22:00N 18°01' W 063°03'0 0.0
2020-Sep-27 20:00N 18°01' W 063°03'0 0.0
2020-Sep-27 18:51N 18°01' W 063°03'0 0.0
2020-Sep-27 16:54N 18°01' W 063°03'0 0.0
2020-Sep-27 12:54N 18°01' W 063°03'14 4.7
2020-Sep-27 09:59N 18°00' W 063°17'17 6.7
2020-Sep-27 07:31N 18°04' W 063°34'9 1.1
2020-Sep-26 22:54N 18°03' W 063°25'1714.2
2020-Sep-26 21:44N 17°60' W 063°07'5 0.4
2020-Sep-26 10:41N 18°01' W 063°03'0 0.0
2020-Sep-26 05:17N 18°01' W 063°03'0 0.0
2020-Sep-24 15:49N 18°01' W 063°03'0 0.0
2020-Sep-23 13:35N 18°01' W 063°03'0 0.0
2020-Sep-22 15:43N 18°01' W 063°03'0 0.0
2020-Sep-21 10:28N 18°01' W 063°03'  
Track history (hours):
 
Tides and Currents Weather Stations Pressure Air Temp Water Temp Dewpoint Dewpoint Depression Visibility Wind Speed Wind Dir Waves Ship Positions

Carnival Pride

Operator: Carnival Cruise Lines

Last reported at 2020-Oct-01 05:18 UTC. Time now 2020-Oct-01 07:55 UTC.
Position N 18°01' W 063°03'.

Type: Ship. MMSI: 354215000.

Date/timePositionNaut miles runAvg speedWind from/ knotsBaromVisibWave heightAir tempDewpointWater temp
2020-Oct-01 05:18N 18°01' W 063°03'0 0.0
2020-Sep-30 22:30N 18°01' W 063°03'0 0.0
2020-Sep-30 21:27N 18°01' W 063°03'0 0.0
2020-Sep-30 14:51N 18°01' W 063°03'0 0.0
2020-Sep-30 12:39N 18°01' W 063°03'0 0.0
2020-Sep-30 09:54N 18°01' W 063°03'0 0.0
2020-Sep-30 06:00N 18°01' W 063°03'0 0.0
2020-Sep-30 05:27N 18°01' W 063°03'0 0.0
2020-Sep-30 05:01N 18°01' W 063°03'0 0.0
2020-Sep-30 02:51N 18°01' W 063°03'0 0.0
2020-Sep-30 02:21N 18°01' W 063°03'0 0.0
2020-Sep-29 23:25N 18°01' W 063°03'0 0.0
2020-Sep-29 17:00N 18°01' W 063°03'0 0.0
2020-Sep-29 16:00N 18°01' W 063°03'0 0.0
2020-Sep-29 14:30N 18°01' W 063°03'0 0.0
2020-Sep-29 13:48N 18°01' W 063°03'0 0.0
2020-Sep-29 12:51N 18°01' W 063°03'0 0.0
2020-Sep-29 11:09N 18°01' W 063°03'0 0.0
2020-Sep-29 06:39N 18°01' W 063°03'0 0.0
2020-Sep-29 04:57N 18°01' W 063°03'0 0.0
2020-Sep-29 04:30N 18°01' W 063°03'0 0.0
2020-Sep-29 00:21N 18°01' W 063°03'0 0.0
2020-Sep-28 21:48N 18°01' W 063°03'0 0.0
2020-Sep-28 19:51N 18°01' W 063°03'0 0.0
2020-Sep-28 19:06N 18°01' W 063°03'0 0.0
2020-Sep-28 18:24N 18°01' W 063°03'0 0.0
2020-Sep-28 17:24N 18°01' W 063°03'0 0.0
2020-Sep-28 16:00N 18°01' W 063°03'0 0.0
2020-Sep-28 14:00N 18°01' W 063°03'0 0.0
2020-Sep-28 12:00N 18°01' W 063°03'0 0.0
2020-Sep-28 11:30N 18°01' W 063°03'0 0.0
2020-Sep-28 11:00N 18°01' W 063°03'0 0.0
2020-Sep-28 10:18N 18°01' W 063°03'0 0.0
2020-Sep-28 08:09N 18°01' W 063°03'0 0.0
2020-Sep-28 07:21N 18°01' W 063°03'0 0.0
2020-Sep-28 02:57N 18°01' W 063°03'0 0.0
2020-Sep-28 01:30N 18°01' W 063°03'0 0.0
2020-Sep-28 00:57N 18°01' W 063°03'0 0.0
2020-Sep-27 22:00N 18°01' W 063°03'0 0.0
2020-Sep-27 20:00N 18°01' W 063°03'0 0.0
2020-Sep-27 18:51N 18°01' W 063°03'0 0.0
2020-Sep-27 16:54N 18°01' W 063°03'0 0.0
2020-Sep-27 12:54N 18°01' W 063°03'14 4.7
2020-Sep-27 09:59N 18°00' W 063°17'17 6.7
2020-Sep-27 07:31N 18°04' W 063°34'9 1.1
2020-Sep-26 22:54N 18°03' W 063°25'1714.2
2020-Sep-26 21:44N 17°60' W 063°07'5 0.4
2020-Sep-26 10:41N 18°01' W 063°03'0 0.0
2020-Sep-26 05:17N 18°01' W 063°03'0 0.0
2020-Sep-24 15:49N 18°01' W 063°03'0 0.0
2020-Sep-23 13:35N 18°01' W 063°03'0 0.0
2020-Sep-22 15:43N 18°01' W 063°03'0 0.0
2020-Sep-21 10:28N 18°01' W 063°03'  

Dump ship's entire track history